createdAt,value
2022-08-19T00:00:48.396Z,2.90
2022-08-19T00:05:24.941Z,3.20
2022-08-19T00:09:36.556Z,3.00
2022-08-19T00:13:49.425Z,2.95
2022-08-19T00:18:02.171Z,2.80
2022-08-19T00:22:13.847Z,2.53
2022-08-19T00:26:26.756Z,2.97
2022-08-19T00:30:38.730Z,3.08
2022-08-19T00:34:50.470Z,2.97
2022-08-19T00:39:02.476Z,3.50
2022-08-19T00:43:18.973Z,4.15
2022-08-19T00:47:30.681Z,3.80
2022-08-19T00:51:45.163Z,3.63
2022-08-19T00:56:00.987Z,4.05
2022-08-19T01:00:15.617Z,3.58
2022-08-19T01:04:27.304Z,3.67
2022-08-19T01:08:38.983Z,4.15
2022-08-19T01:12:52.097Z,3.90
2022-08-19T01:17:04.097Z,4.75
2022-08-19T01:21:41.351Z,4.55
2022-08-19T01:25:55.408Z,3.88
2022-08-19T01:30:08.177Z,4.13
2022-08-19T01:34:20.479Z,4.50
2022-08-19T01:38:32.628Z,4.85
2022-08-19T01:42:44.359Z,4.80
2022-08-19T01:46:56.156Z,4.43
2022-08-19T01:51:09.036Z,4.65
2022-08-19T01:55:24.736Z,4.97
2022-08-19T01:59:37.470Z,4.88
2022-08-19T02:03:49.177Z,5.03
2022-08-19T02:08:00.803Z,4.63
2022-08-19T02:12:12.462Z,4.38
2022-08-19T02:16:24.474Z,5.18
2022-08-19T02:20:37.958Z,5.80
2022-08-19T02:24:49.964Z,4.97
2022-08-19T02:29:01.786Z,4.63
2022-08-19T02:33:13.542Z,5.00
2022-08-19T02:37:43.681Z,5.88
2022-08-19T02:41:55.281Z,4.70
2022-08-19T02:46:28.048Z,5.05
2022-08-19T02:50:41.202Z,4.72
2022-08-19T02:55:05.884Z,5.55
2022-08-19T02:59:17.580Z,5.00
2022-08-19T03:03:32.918Z,4.97
2022-08-19T03:07:44.639Z,5.30
2022-08-19T03:11:56.410Z,4.88
2022-08-19T03:16:08.070Z,5.35
2022-08-19T03:20:19.743Z,5.65
2022-08-19T03:24:32.038Z,5.60
2022-08-19T03:28:51.501Z,5.50
2022-08-19T03:33:10.769Z,5.22
2022-08-19T03:37:29.706Z,5.40
2022-08-19T03:41:45.449Z,5.35
2022-08-19T03:46:03.533Z,5.65
2022-08-19T03:50:16.040Z,5.72
2022-08-19T03:54:28.565Z,6.05
2022-08-19T03:58:41.819Z,6.32
2022-08-19T04:03:00.580Z,6.97
2022-08-19T04:07:17.051Z,6.20
2022-08-19T04:11:42.973Z,6.00
2022-08-19T04:15:56.025Z,5.95
2022-08-19T04:20:08.011Z,5.80
2022-08-19T04:24:20.767Z,5.10
2022-08-19T04:28:32.414Z,5.32
2022-08-19T04:32:45.574Z,6.00
2022-08-19T04:36:59.138Z,5.10
2022-08-19T04:41:29.357Z,5.95
2022-08-19T04:45:43.832Z,5.22
2022-08-19T04:49:56.430Z,5.57
2022-08-19T04:54:08.050Z,5.25
2022-08-19T04:58:19.710Z,5.30
2022-08-19T05:02:31.447Z,5.53
2022-08-19T05:06:44.110Z,6.43
2022-08-19T05:10:55.974Z,5.22
2022-08-19T05:15:09.438Z,5.57
2022-08-19T05:19:39.671Z,6.18
2022-08-19T05:23:51.245Z,6.68
2022-08-19T05:28:02.990Z,6.05
2022-08-19T05:32:14.855Z,7.78
2022-08-19T05:36:27.865Z,8.40
2022-08-19T05:40:40.158Z,9.23
2022-08-19T05:44:52.122Z,10.13
2022-08-19T05:49:05.319Z,9.13
2022-08-19T05:53:18.206Z,7.13
2022-08-19T05:57:30.104Z,6.85
2022-08-19T06:01:44.631Z,6.63
2022-08-19T06:05:56.387Z,6.50
2022-08-19T06:10:10.216Z,6.38
2022-08-19T06:14:27.974Z,6.80
2022-08-19T06:18:39.975Z,7.05
2022-08-19T06:22:52.510Z,7.28
2022-08-19T06:27:06.692Z,6.93
2022-08-19T06:31:24.887Z,7.82
2022-08-19T06:35:40.546Z,6.95
2022-08-19T06:39:52.309Z,7.95
2022-08-19T06:44:04.228Z,7.80
2022-08-19T06:48:16.175Z,9.43
2022-08-19T06:52:38.267Z,10.73
2022-08-19T06:56:50.200Z,12.73
2022-08-19T07:01:08.706Z,15.00
2022-08-19T07:05:20.987Z,16.98
2022-08-19T07:09:32.647Z,18.65
2022-08-19T07:13:46.050Z,20.63
2022-08-19T07:17:57.732Z,19.42
2022-08-19T07:22:13.144Z,19.75
2022-08-19T07:26:28.793Z,22.92
2022-08-19T07:30:41.715Z,21.83
2022-08-19T07:34:56.434Z,22.30
2022-08-19T07:39:12.085Z,24.10
2022-08-19T07:43:26.124Z,23.65
2022-08-19T07:47:58.680Z,23.92
2022-08-19T07:52:11.330Z,24.67
2022-08-19T07:56:23.698Z,24.13
2022-08-19T08:00:36.299Z,23.25
2022-08-19T08:05:06.449Z,24.80
2022-08-19T08:09:23.843Z,23.60
2022-08-19T08:13:36.289Z,22.63
2022-08-19T08:17:51.619Z,22.13
2022-08-19T08:22:04.389Z,23.10
2022-08-19T08:26:17.137Z,23.65
2022-08-19T08:30:33.811Z,22.58
2022-08-19T08:34:47.457Z,22.33
2022-08-19T08:39:04.274Z,19.75
2022-08-19T08:43:25.614Z,17.52
2022-08-19T08:47:41.940Z,18.48
2022-08-19T08:52:02.831Z,18.00
2022-08-19T08:56:17.031Z,17.27
2022-08-19T09:00:39.870Z,16.02
2022-08-19T09:04:51.571Z,16.25
2022-08-19T09:09:12.171Z,16.73
2022-08-19T09:13:37.526Z,14.55
2022-08-19T09:17:52.042Z,14.07
2022-08-19T09:22:03.837Z,14.63
2022-08-19T09:26:19.923Z,15.52
2022-08-19T09:30:41.160Z,15.20
2022-08-19T09:34:55.590Z,14.70
2022-08-19T09:39:16.158Z,13.38
2022-08-19T09:43:33.630Z,12.70
2022-08-19T09:47:55.979Z,13.32
2022-08-19T09:52:10.354Z,13.82
2022-08-19T09:56:25.576Z,11.43
2022-08-19T10:00:39.191Z,13.82
2022-08-19T10:05:09.472Z,12.85
2022-08-19T10:09:33.627Z,11.50
2022-08-19T10:13:46.700Z,11.25
2022-08-19T10:17:59.787Z,11.15
2022-08-19T10:22:14.714Z,11.88
2022-08-19T10:26:30.353Z,11.30
2022-08-19T10:30:42.885Z,11.82
2022-08-19T10:34:57.229Z,11.57
2022-08-19T10:39:10.787Z,10.82
2022-08-19T10:43:22.458Z,11.55
2022-08-19T10:47:35.496Z,10.05
2022-08-19T10:52:05.649Z,11.45
2022-08-19T10:56:41.013Z,12.07
2022-08-19T11:00:59.601Z,10.27
2022-08-19T11:05:12.689Z,9.82
2022-08-19T11:09:34.043Z,9.05
2022-08-19T11:13:46.850Z,9.57
2022-08-19T11:17:58.540Z,11.30
2022-08-19T11:22:10.538Z,9.57
2022-08-19T11:26:28.965Z,10.38
2022-08-19T11:30:40.617Z,8.60
2022-08-19T11:34:52.321Z,10.23
2022-08-19T11:39:07.101Z,8.75
2022-08-19T11:43:19.179Z,8.68
2022-08-19T11:47:31.690Z,8.38
2022-08-19T11:51:44.431Z,9.43
2022-08-19T11:55:56.822Z,8.57
2022-08-19T12:00:09.444Z,7.80
2022-08-19T12:04:21.201Z,8.88
2022-08-19T12:08:33.202Z,8.93
2022-08-19T12:12:47.467Z,9.60
2022-08-19T12:17:12.405Z,10.10
2022-08-19T12:21:29.515Z,9.63
2022-08-19T12:25:52.787Z,9.10
2022-08-19T12:30:06.283Z,10.05
2022-08-19T12:34:18.381Z,10.38
2022-08-19T12:38:30.208Z,12.18
2022-08-19T12:42:45.237Z,11.00
2022-08-19T12:46:57.910Z,10.45
2022-08-19T12:51:13.395Z,9.75
2022-08-19T12:55:26.000Z,11.43
2022-08-19T12:59:38.676Z,9.93
2022-08-19T13:03:51.357Z,10.85
2022-08-19T13:08:03.260Z,13.45
2022-08-19T13:12:14.946Z,10.05
2022-08-19T13:16:28.750Z,11.20
2022-08-19T13:20:41.713Z,10.05
2022-08-19T13:24:53.906Z,8.98
2022-08-19T13:29:24.249Z,9.27
2022-08-19T13:33:36.411Z,9.77
2022-08-19T13:37:48.290Z,9.80
2022-08-19T13:42:01.658Z,10.32
2022-08-19T13:46:14.979Z,8.13
2022-08-19T13:50:29.809Z,8.05
2022-08-19T13:54:41.431Z,7.78
2022-08-19T13:58:54.356Z,8.20
2022-08-19T14:03:09.302Z,8.88
2022-08-19T14:07:21.393Z,8.55
2022-08-19T14:11:33.054Z,9.63
2022-08-19T14:15:45.845Z,10.23
2022-08-19T14:20:00.212Z,8.80
2022-08-19T14:24:21.990Z,10.65
2022-08-19T14:28:33.746Z,8.45
2022-08-19T14:32:45.530Z,10.68
2022-08-19T14:36:57.135Z,8.85
2022-08-19T14:41:12.760Z,8.70
2022-08-19T14:45:24.569Z,9.43
2022-08-19T14:49:42.298Z,8.18
2022-08-19T14:53:57.131Z,6.43
2022-08-19T14:58:09.887Z,4.57
2022-08-19T15:02:45.104Z,4.55
2022-08-19T15:06:56.770Z,4.30
2022-08-19T15:11:11.180Z,4.80
2022-08-19T15:15:23.714Z,5.30
2022-08-19T15:19:36.924Z,4.68
2022-08-19T15:23:50.384Z,3.97
2022-08-19T15:28:04.178Z,3.38
2022-08-19T15:32:15.796Z,3.40
2022-08-19T15:36:27.729Z,2.58
2022-08-19T15:40:41.755Z,2.05
2022-08-19T15:44:53.478Z,1.90
2022-08-19T15:49:07.172Z,1.85
2022-08-19T15:53:18.871Z,2.20
2022-08-19T15:57:30.563Z,1.90
2022-08-19T16:02:00.958Z,1.55
2022-08-19T16:06:28.594Z,1.70
2022-08-19T16:10:40.463Z,1.77
2022-08-19T16:14:52.118Z,1.70
2022-08-19T16:19:10.664Z,1.60
2022-08-19T16:23:23.907Z,1.60
2022-08-19T16:27:35.842Z,1.70
2022-08-19T16:31:48.502Z,2.00
2022-08-19T16:36:06.898Z,1.80
2022-08-19T16:40:19.684Z,2.28
2022-08-19T16:44:31.416Z,1.95
2022-08-19T16:48:45.304Z,2.20
2022-08-19T16:52:58.408Z,2.60
2022-08-19T16:57:11.973Z,3.13
2022-08-19T17:01:23.907Z,3.20
2022-08-19T17:05:35.764Z,3.45
2022-08-19T17:09:47.451Z,3.20
2022-08-19T17:14:05.060Z,3.13
2022-08-19T17:18:17.365Z,2.97
2022-08-19T17:22:29.728Z,3.00
2022-08-19T17:26:41.609Z,3.88
2022-08-19T17:30:53.767Z,3.78
2022-08-19T17:35:05.971Z,3.47
2022-08-19T17:39:17.760Z,3.20
2022-08-19T17:43:33.378Z,3.63
2022-08-19T17:47:45.933Z,3.45
2022-08-19T17:51:59.404Z,3.08
2022-08-19T17:56:11.349Z,3.50
2022-08-19T18:00:23.328Z,3.03
2022-08-19T18:04:38.527Z,3.60
2022-08-19T18:08:50.238Z,3.03
2022-08-19T18:13:02.080Z,2.70
2022-08-19T18:17:30.201Z,2.55
2022-08-19T18:21:41.854Z,2.88
2022-08-19T18:25:53.520Z,2.88
2022-08-19T18:30:08.845Z,2.92
2022-08-19T18:34:20.480Z,3.22
2022-08-19T18:38:50.592Z,3.25
2022-08-19T18:43:15.467Z,2.53
2022-08-19T18:47:45.658Z,3.42
2022-08-19T18:51:58.197Z,2.60
2022-08-19T18:56:13.364Z,3.00
2022-08-19T19:00:25.270Z,2.88
2022-08-19T19:04:40.608Z,3.10
2022-08-19T19:08:53.955Z,3.28
2022-08-19T19:13:05.761Z,3.15
2022-08-19T19:17:17.816Z,3.38
2022-08-19T19:21:34.057Z,2.83
2022-08-19T19:25:51.045Z,2.80
2022-08-19T19:30:03.226Z,3.17
2022-08-19T19:34:29.123Z,2.97
2022-08-19T19:38:48.332Z,3.47
2022-08-19T19:43:00.628Z,2.72
2022-08-19T19:47:12.723Z,2.55
2022-08-19T19:51:25.400Z,2.55
2022-08-19T19:55:37.243Z,2.45
2022-08-19T19:59:51.536Z,2.80
2022-08-19T20:04:03.741Z,2.67
2022-08-19T20:08:34.400Z,2.90
2022-08-19T20:12:46.131Z,2.85
2022-08-19T20:16:59.194Z,2.88
2022-08-19T20:21:11.239Z,2.95
2022-08-19T20:25:23.327Z,2.88
2022-08-19T20:29:39.152Z,3.22
2022-08-19T20:33:53.236Z,2.20
2022-08-19T20:38:06.502Z,2.80
2022-08-19T20:42:18.279Z,2.40
2022-08-19T20:46:30.265Z,2.80
2022-08-19T20:50:42.124Z,2.72
2022-08-19T20:54:54.061Z,2.65
2022-08-19T20:59:10.543Z,2.67
2022-08-19T21:03:27.228Z,3.08
2022-08-19T21:07:39.771Z,2.63
2022-08-19T21:11:51.486Z,3.00
2022-08-19T21:16:03.365Z,2.88
2022-08-19T21:20:20.876Z,2.78
2022-08-19T21:24:32.582Z,3.42
2022-08-19T21:28:44.214Z,2.70
2022-08-19T21:32:56.201Z,3.03
2022-08-19T21:37:08.104Z,2.92
2022-08-19T21:41:32.241Z,3.45
2022-08-19T21:45:43.998Z,3.25
2022-08-19T21:49:55.711Z,3.50
2022-08-19T21:54:07.332Z,3.45
2022-08-19T21:58:28.253Z,3.53
2022-08-19T22:02:42.109Z,3.28
2022-08-19T22:06:53.707Z,4.03
2022-08-19T22:11:05.353Z,4.35
2022-08-19T22:15:18.426Z,3.58
2022-08-19T22:19:30.342Z,4.07
2022-08-19T22:23:44.246Z,4.25
2022-08-19T22:27:57.478Z,4.38
2022-08-19T22:32:26.142Z,4.28
2022-08-19T22:36:39.422Z,4.50
2022-08-19T22:40:52.408Z,4.40
2022-08-19T22:45:09.099Z,4.07
2022-08-19T22:49:20.798Z,4.60
2022-08-19T22:53:37.402Z,4.80
2022-08-19T22:57:49.036Z,3.97
2022-08-19T23:02:00.630Z,4.68
2022-08-19T23:06:14.111Z,4.80
2022-08-19T23:10:28.907Z,4.63
2022-08-19T23:14:41.444Z,4.75
2022-08-19T23:18:56.011Z,5.38
2022-08-19T23:23:11.546Z,4.93
2022-08-19T23:27:41.745Z,4.88
2022-08-19T23:31:53.723Z,4.93
2022-08-19T23:36:14.680Z,4.57
2022-08-19T23:40:26.742Z,5.22
2022-08-19T23:44:51.224Z,5.40
2022-08-19T23:49:04.089Z,4.72
2022-08-19T23:53:15.941Z,4.63
2022-08-19T23:57:28.159Z,5.05
